Time;durP1;ratioP1;P1;durP2;ratioP2;P2;SDS_P1;SDS_P2;PMS_P1;PMS_P2;Temp;Humidity;BMP_temperature;BMP_pressure;BME280_temperature;BME280_humidity;BME280_pressure;Samples;Min_cycle;Max_cycle;Signal;HPM_P1;HPM_P2
2024/03/17 00:00:03;;;;;;;0.90;0.60;;;;;;;4.01;92.43;101581.41;5020429;28;20233;-69
2024/03/17 00:02:32;;;;;;;0.80;0.50;;;;;;;4.01;92.31;101584.06;5015229;28;20221;-72
2024/03/17 00:04:58;;;;;;;0.80;0.50;;;;;;;3.95;92.52;101585.47;5013060;28;20205;-69
2024/03/17 00:07:26;;;;;;;4.18;0.82;;;;;;;3.90;92.97;101577.88;5014536;28;20197;-71
2024/03/17 00:10:55;;;;;;;0.90;0.60;;;;;;;3.89;93.33;101586.91;5007190;28;20226;-71
2024/03/17 00:13:25;;;;;;;0.98;0.73;;;;;;;3.95;93.60;101582.81;5010185;28;20198;-71
2024/03/17 00:15:52;;;;;;;1.25;1.10;;;;;;;3.97;93.91;101582.69;5030745;28;20194;-71
2024/03/17 00:18:20;;;;;;;0.80;0.50;;;;;;;3.96;94.41;101589.88;5030980;28;20193;-71
2024/03/17 00:20:47;;;;;;;2.65;0.60;;;;;;;3.93;93.67;101588.28;5030800;28;20218;-71
2024/03/17 00:23:15;;;;;;;1.25;1.15;;;;;;;3.88;95.03;101581.66;5030750;28;20244;-70
2024/03/17 00:25:42;;;;;;;1.45;1.10;;;;;;;3.90;94.02;101588.59;5014292;28;20198;-70
2024/03/17 00:28:11;;;;;;;5.43;0.85;;;;;;;3.87;94.96;101577.31;5030725;28;20190;-71
2024/03/17 00:30:41;;;;;;;0.80;0.60;;;;;;;3.92;95.61;101585.78;5014153;28;20575;-70
2024/03/17 00:33:10;;;;;;;7.32;0.75;;;;;;;3.89;94.11;101597.59;5031777;28;20190;-71
2024/03/17 00:35:37;;;;;;;1.25;0.98;;;;;;;3.89;94.85;101596.75;4996708;28;20198;-72
2024/03/17 00:38:10;;;;;;;1.25;1.15;;;;;;;3.85;94.54;101603.38;5014372;28;20197;-71
2024/03/17 00:40:37;;;;;;;2.67;0.73;;;;;;;3.86;95.51;101605.09;5013867;28;20205;-70
2024/03/17 00:43:05;;;;;;;7.70;1.20;;;;;;;3.83;94.26;101602.66;5017415;28;20213;-71
2024/03/17 00:45:32;;;;;;;0.80;0.50;;;;;;;3.92;94.00;101608.03;5013964;28;20218;-70
2024/03/17 00:48:01;;;;;;;0.80;0.50;;;;;;;3.89;93.90;101604.78;5016343;28;20194;-70
2024/03/17 00:50:28;;;;;;;0.80;0.50;;;;;;;3.88;94.41;101601.25;5029983;28;20220;-72
2024/03/17 00:52:56;;;;;;;1.20;0.85;;;;;;;3.87;94.81;101607.59;5013762;28;20315;-70
2024/03/17 00:55:23;;;;;;;0.80;0.50;;;;;;;3.82;95.09;101599.19;5018072;28;20194;-71
2024/03/17 00:57:51;;;;;;;3.38;1.13;;;;;;;3.84;94.55;101594.50;5030174;28;20202;-68
2024/03/17 01:00:18;;;;;;;7.22;1.00;;;;;;;3.87;95.21;101596.88;5013579;28;20206;-70
2024/03/17 01:02:46;;;;;;;1.70;1.42;;;;;;;3.81;94.81;101605.50;5013810;28;20202;-70
2024/03/17 01:05:15;;;;;;;0.90;0.65;;;;;;;3.85;95.00;101603.38;5012496;28;20190;-71
2024/03/17 01:07:42;;;;;;;1.83;1.73;;;;;;;3.77;95.49;101603.25;5013685;28;20539;-68
2024/03/17 01:10:09;;;;;;;2.85;0.90;;;;;;;3.88;95.26;101606.63;5040978;28;20217;-70
2024/03/17 01:12:37;;;;;;;0.80;0.50;;;;;;;3.88;94.18;101617.31;4997483;28;20704;-71
2024/03/17 01:15:06;;;;;;;0.90;0.63;;;;;;;3.88;94.79;101598.59;5026403;28;20197;-69
2024/03/17 01:17:34;;;;;;;0.80;0.50;;;;;;;3.87;94.64;101602.25;5036452;28;20232;-70
2024/03/17 01:20:03;;;;;;;0.80;0.55;;;;;;;3.79;95.48;101607.47;5015560;28;20217;-70
2024/03/17 01:22:32;;;;;;;0.95;0.85;;;;;;;3.84;95.98;101599.84;5031309;28;20205;-71
2024/03/17 01:25:00;;;;;;;0.80;0.50;;;;;;;3.86;95.10;101592.53;5025170;28;20533;-68
2024/03/17 01:27:27;;;;;;;3.53;0.90;;;;;;;3.96;95.10;101594.38;4997230;28;20209;-70
2024/03/17 01:29:55;;;;;;;0.80;0.50;;;;;;;3.92;94.83;101597.31;5013241;28;20221;-70
2024/03/17 01:32:22;;;;;;;5.03;1.15;;;;;;;3.79;95.23;101602.13;5014324;28;20212;-70
2024/03/17 01:34:51;;;;;;;0.80;0.50;;;;;;;3.70;95.65;101602.97;5005594;28;20196;-71
2024/03/17 01:37:20;;;;;;;0.90;0.70;;;;;;;3.64;96.65;101602.66;5029881;28;20210;-71
2024/03/17 01:39:50;;;;;;;2.88;2.45;;;;;;;3.70;96.27;101602.97;5013616;28;20213;-70
2024/03/17 01:42:17;;;;;;;0.80;0.50;;;;;;;3.67;96.34;101594.38;5013698;28;20248;-71
2024/03/17 01:44:45;;;;;;;2.45;2.25;;;;;;;3.61;97.00;101602.97;5011494;28;20296;-70
2024/03/17 01:47:12;;;;;;;1.17;0.90;;;;;;;3.57;97.05;101593.53;5013871;28;20571;-71
2024/03/17 01:49:41;;;;;;;0.90;0.65;;;;;;;3.53;97.38;101584.09;5013278;28;20213;-70
2024/03/17 01:52:08;;;;;;;0.80;0.50;;;;;;;3.47;98.08;101589.00;5026366;28;20186;-70
2024/03/17 01:54:37;;;;;;;2.75;1.02;;;;;;;3.50;98.41;101591.41;5014268;28;20236;-71
2024/03/17 01:57:05;;;;;;;14.45;1.05;;;;;;;3.44;98.10;101591.09;5030087;28;20228;-71
2024/03/17 01:59:33;;;;;;;0.80;0.50;;;;;;;3.49;99.02;101594.19;5006724;28;20213;-72
2024/03/17 02:02:02;;;;;;;0.80;0.50;;;;;;;3.60;97.80;101596.75;5011144;28;20206;-70
2024/03/17 02:04:30;;;;;;;0.90;0.70;;;;;;;3.68;97.24;101583.50;5003186;28;20650;-71
2024/03/17 02:06:57;;;;;;;0.80;0.50;;;;;;;3.78;96.96;101599.56;5033960;28;20181;-71
2024/03/17 02:09:25;;;;;;;0.80;0.50;;;;;;;3.71;97.06;101598.47;5046730;28;20205;-71
2024/03/17 02:11:53;;;;;;;0.80;0.50;;;;;;;3.66;97.48;101600.72;5010920;28;20186;-71
2024/03/17 02:14:22;;;;;;;0.80;0.50;;;;;;;3.58;97.93;101609.44;5013891;28;20193;-73
2024/03/17 02:16:49;;;;;;;2.78;0.60;;;;;;;3.52;98.61;101615.34;5014448;28;20308;-70
2024/03/17 02:19:16;;;;;;;0.80;0.50;;;;;;;3.45;99.23;101600.81;5012918;28;20221;-71
2024/03/17 02:21:44;;;;;;;4.93;0.80;;;;;;;3.35;99.33;101610.66;4996743;28;20225;-71
2024/03/17 02:24:12;;;;;;;0.80;0.50;;;;;;;3.35;99.63;101592.78;5026709;28;20190;-70
2024/03/17 02:26:40;;;;;;;1.15;1.05;;;;;;;3.36;99.50;101591.81;5031307;28;20678;-70
2024/03/17 02:29:07;;;;;;;1.10;0.65;;;;;;;3.37;100.00;101601.53;5011952;28;20206;-70
2024/03/17 02:31:35;;;;;;;0.80;0.50;;;;;;;3.37;99.56;101595.34;5011216;28;20530;-70
2024/03/17 02:34:01;;;;;;;0.90;0.60;;;;;;;3.30;100.00;101594.19;5012181;28;20194;-71
2024/03/17 02:36:29;;;;;;;1.50;1.13;;;;;;;3.26;100.00;101598.13;5033079;28;20190;-72
2024/03/17 02:41:45;;;;;;;0.80;0.50;;;;;;;3.33;100.00;101596.59;5004739;28;20218;-71
2024/03/17 02:44:13;;;;;;;0.80;0.52;;;;;;;3.34;100.00;101601.78;5011685;28;20624;-70
2024/03/17 02:46:41;;;;;;;1.33;1.23;;;;;;;3.39;100.00;101604.03;5001497;28;20202;-70
2024/03/17 02:49:13;;;;;;;0.90;0.60;;;;;;;3.33;100.00;101609.97;5018239;28;20213;-70
2024/03/17 02:51:41;;;;;;;0.80;0.50;;;;;;;3.18;100.00;101608.66;5007962;28;20210;-70
2024/03/17 02:54:09;;;;;;;1.00;0.60;;;;;;;3.21;100.00;101603.88;5007781;28;20217;-70
2024/03/17 02:56:37;;;;;;;2.90;1.58;;;;;;;3.15;100.00;101600.94;5028446;28;20194;-71
2024/03/17 02:59:06;;;;;;;1.00;0.70;;;;;;;3.10;100.00;101604.00;5005736;28;20265;-70
2024/03/17 03:01:34;;;;;;;0.88;0.65;;;;;;;3.17;100.00;101598.94;5014226;28;20202;-70
2024/03/17 03:04:02;;;;;;;0.90;0.73;;;;;;;3.10;100.00;101592.47;5025667;28;20737;-69
2024/03/17 03:06:30;;;;;;;0.80;0.50;;;;;;;3.01;100.00;101599.47;5009656;28;20182;-70
2024/03/17 03:08:58;;;;;;;7.97;0.98;;;;;;;2.96;100.00;101596.34;5028045;28;20206;-71
2024/03/17 03:11:25;;;;;;;1.00;0.88;;;;;;;3.02;100.00;101607.34;5025940;28;20194;-71
2024/03/17 03:13:53;;;;;;;1.50;1.40;;;;;;;2.86;100.00;101593.66;5012108;28;20228;-71
2024/03/17 03:16:23;;;;;;;1.85;0.82;;;;;;;2.86;100.00;101595.47;5028220;28;20493;-70
2024/03/17 03:18:52;;;;;;;0.90;0.70;;;;;;;2.86;100.00;101596.31;5006773;28;20193;-68
2024/03/17 03:21:21;;;;;;;1.17;0.85;;;;;;;2.84;100.00;101598.28;5025584;28;20209;-71
2024/03/17 03:23:49;;;;;;;0.80;0.60;;;;;;;2.84;100.00;101602.78;5014085;28;20189;-70
2024/03/17 03:26:17;;;;;;;1.00;0.77;;;;;;;2.71;100.00;101596.84;5019512;28;20666;-70
2024/03/17 03:28:45;;;;;;;0.80;0.60;;;;;;;2.68;100.00;101602.44;5000564;28;20202;-70
2024/03/17 03:31:14;;;;;;;0.80;0.50;;;;;;;2.72;100.00;101603.84;5025611;28;20197;-71
2024/03/17 03:33:43;;;;;;;0.80;0.50;;;;;;;2.71;100.00;101603.00;5029932;28;20213;-70
2024/03/17 03:36:13;;;;;;;2.05;1.25;;;;;;;2.70;100.00;101609.34;5009287;28;20556;-71
2024/03/17 03:38:41;;;;;;;3.83;2.10;;;;;;;2.62;100.00;101598.47;5014769;28;20213;-71
2024/03/17 03:41:10;;;;;;;0.80;0.50;;;;;;;2.68;100.00;101608.63;5025608;28;20189;-71
2024/03/17 03:43:38;;;;;;;1.20;0.82;;;;;;;2.60;100.00;101611.97;5017828;28;20197;-71
2024/03/17 03:46:07;;;;;;;0.90;0.52;;;;;;;2.62;100.00;101614.50;5010605;28;20201;-71
2024/03/17 03:48:37;;;;;;;2.03;0.60;;;;;;;2.66;100.00;101610.59;5011444;28;20225;-70
2024/03/17 03:51:09;;;;;;;1.25;0.90;;;;;;;2.70;100.00;101617.38;5011320;28;20656;-71
2024/03/17 03:53:38;;;;;;;1.55;0.60;;;;;;;2.66;100.00;101617.78;5011333;28;20722;-71
2024/03/17 03:56:07;;;;;;;2.25;0.60;;;;;;;2.68;100.00;101616.66;5010809;28;20305;-71
2024/03/17 03:58:35;;;;;;;1.65;1.55;;;;;;;2.66;100.00;101629.31;5027160;28;20205;-70
2024/03/17 04:01:06;;;;;;;3.22;0.80;;;;;;;2.56;100.00;101620.41;5006043;28;20191;-70
2024/03/17 04:03:34;;;;;;;9.90;1.17;;;;;;;2.55;100.00;101629.38;5008394;28;20198;-69
2024/03/17 04:06:08;;;;;;;1.30;1.00;;;;;;;2.50;100.00;101620.91;5010815;28;20204;-72
2024/03/17 04:08:37;;;;;;;1.25;1.05;;;;;;;2.49;100.00;101621.91;5011096;28;20200;-70
2024/03/17 04:11:08;;;;;;;1.17;0.80;;;;;;;2.48;100.00;101622.88;5023155;28;20196;-70
2024/03/17 04:13:36;;;;;;;2.55;1.05;;;;;;;2.44;100.00;101624.13;5016072;28;20309;-70
2024/03/17 04:16:06;;;;;;;0.90;0.50;;;;;;;2.44;100.00;101624.97;5021519;28;20666;-71
2024/03/17 04:18:35;;;;;;;0.80;0.50;;;;;;;2.46;100.00;101619.50;5014704;28;20291;-69
2024/03/17 04:21:04;;;;;;;0.93;0.75;;;;;;;2.41;100.00;101621.72;5014477;28;20251;-70
2024/03/17 04:23:34;;;;;;;1.90;1.05;;;;;;;2.43;100.00;101625.94;5014441;28;20211;-71
2024/03/17 04:26:03;;;;;;;0.80;0.50;;;;;;;2.44;100.00;101624.13;5013716;28;20208;-71
2024/03/17 04:28:31;;;;;;;2.00;0.80;;;;;;;2.69;100.00;101625.50;5030829;28;20189;-71
2024/03/17 04:31:06;;;;;;;0.90;0.80;;;;;;;2.68;100.00;101619.31;5013679;28;20214;-72
2024/03/17 04:33:34;;;;;;;0.80;0.50;;;;;;;2.71;100.00;101626.25;5021533;28;20649;-71
2024/03/17 04:36:03;;;;;;;0.90;0.60;;;;;;;2.68;100.00;101623.81;5004961;28;20205;-69
2024/03/17 04:38:30;;;;;;;3.85;1.13;;;;;;;2.71;100.00;101616.38;5014244;28;20190;-70
2024/03/17 04:41:04;;;;;;;3.17;1.35;;;;;;;2.68;100.00;101627.34;5013755;28;20216;-71
2024/03/17 04:43:33;;;;;;;1.35;1.20;;;;;;;2.61;100.00;101634.22;5014128;28;20221;-70
2024/03/17 04:46:03;;;;;;;0.80;0.50;;;;;;;2.54;100.00;101636.56;5013864;28;20201;-69
2024/03/17 04:48:32;;;;;;;3.72;0.82;;;;;;;2.50;100.00;101637.81;5016105;28;20282;-70
2024/03/17 04:51:01;;;;;;;0.80;0.50;;;;;;;2.61;100.00;101639.56;5013548;28;20267;-71
2024/03/17 04:53:29;;;;;;;0.80;0.50;;;;;;;2.52;100.00;101643.00;5011322;28;20183;-70
2024/03/17 04:56:06;;;;;;;1.15;0.88;;;;;;;2.42;100.00;101642.94;5027944;28;20662;-71
2024/03/17 04:58:35;;;;;;;0.80;0.50;;;;;;;2.45;100.00;101642.69;5013827;28;20680;-71
2024/03/17 05:01:07;;;;;;;0.80;0.60;;;;;;;2.45;100.00;101645.38;5034221;28;20230;-71
2024/03/17 05:03:35;;;;;;;0.90;0.63;;;;;;;2.37;100.00;101647.00;5015668;28;20209;-70
2024/03/17 05:06:04;;;;;;;6.80;0.98;;;;;;;2.32;100.00;101650.06;5009861;28;20563;-71
2024/03/17 05:08:33;;;;;;;0.80;0.50;;;;;;;2.31;100.00;101642.19;5013320;28;20674;-71
2024/03/17 05:11:01;;;;;;;6.90;2.80;;;;;;;2.35;100.00;101635.59;5026979;28;20216;-71
2024/03/17 05:13:30;;;;;;;1.25;0.80;;;;;;;2.35;100.00;101643.59;5026675;28;20197;-69
2024/03/17 05:15:58;;;;;;;6.70;1.35;;;;;;;2.33;100.00;101645.53;4996869;28;20212;-70
2024/03/17 05:18:26;;;;;;;2.40;1.15;;;;;;;2.16;100.00;101645.19;5006994;28;20565;-71
2024/03/17 05:21:01;;;;;;;0.90;0.57;;;;;;;2.29;100.00;101641.44;5029899;28;20225;-70
2024/03/17 05:23:29;;;;;;;5.85;1.00;;;;;;;2.26;100.00;101647.91;5007497;28;20248;-70
2024/03/17 05:25:58;;;;;;;1.00;0.80;;;;;;;2.39;100.00;101645.03;5013516;28;20669;-71
2024/03/17 05:28:27;;;;;;;1.10;0.85;;;;;;;2.37;100.00;101645.16;5013273;28;20197;-71
2024/03/17 05:30:57;;;;;;;1.75;0.95;;;;;;;2.45;100.00;101644.50;5010777;28;20247;-71
2024/03/17 05:33:26;;;;;;;1.38;0.90;;;;;;;2.50;100.00;101658.31;5013131;28;20203;-71
2024/03/17 05:35:56;;;;;;;0.80;0.50;;;;;;;2.46;100.00;101652.41;5014133;28;20190;-70
2024/03/17 05:38:25;;;;;;;0.90;0.70;;;;;;;2.47;100.00;101664.75;5012982;28;20660;-71
2024/03/17 05:40:56;;;;;;;0.80;0.50;;;;;;;2.51;100.00;101663.53;5015485;28;20630;-71
2024/03/17 05:43:25;;;;;;;1.33;1.08;;;;;;;2.53;100.00;101658.91;4990602;28;20763;-71
2024/03/17 05:45:53;;;;;;;0.80;0.50;;;;;;;2.50;100.00;101663.66;5023275;28;20194;-70
2024/03/17 05:48:24;;;;;;;3.28;0.80;;;;;;;2.60;100.00;101664.56;5020635;28;20196;-70
2024/03/17 05:50:52;;;;;;;1.08;0.95;;;;;;;2.63;100.00;101657.13;5045248;28;20239;-70
2024/03/17 05:53:20;;;;;;;0.80;0.50;;;;;;;2.65;100.00;101661.50;5015870;28;20530;-69
2024/03/17 05:55:48;;;;;;;0.85;0.65;;;;;;;2.74;100.00;101666.91;4997330;28;20666;-71
2024/03/17 05:58:16;;;;;;;0.80;0.60;;;;;;;2.65;100.00;101670.38;5012821;28;20196;-71
2024/03/17 06:00:44;;;;;;;1.55;1.35;;;;;;;2.70;100.00;101676.16;5029127;28;20255;-71
2024/03/17 06:03:12;;;;;;;2.08;1.98;;;;;;;2.81;100.00;101686.75;5019664;28;20290;-71
2024/03/17 06:05:41;;;;;;;0.80;0.50;;;;;;;2.92;100.00;101681.34;5026632;28;20190;-71
2024/03/17 06:08:11;;;;;;;3.50;1.60;;;;;;;2.99;100.00;101692.34;5025300;28;20208;-71
2024/03/17 06:10:43;;;;;;;2.35;1.00;;;;;;;3.02;100.00;101698.28;5028703;28;20218;-70
2024/03/17 06:13:13;;;;;;;2.28;1.52;;;;;;;3.21;100.00;101696.66;5014110;28;20673;-71
2024/03/17 06:15:41;;;;;;;4.20;1.02;;;;;;;3.12;100.00;101692.13;5012057;28;20190;-71
2024/03/17 06:18:12;;;;;;;4.93;0.95;;;;;;;3.05;100.00;101698.00;5028976;28;20623;-71
2024/03/17 06:20:43;;;;;;;0.80;0.50;;;;;;;3.09;100.00;101703.09;5028207;28;20220;-71
2024/03/17 06:23:12;;;;;;;3.08;2.20;;;;;;;3.25;100.00;101703.41;5012328;28;20201;-70
2024/03/17 06:25:41;;;;;;;0.82;0.60;;;;;;;3.20;100.00;101705.66;5028580;28;20273;-71
2024/03/17 06:28:13;;;;;;;0.80;0.60;;;;;;;3.42;100.00;101706.31;5028305;28;20197;-71
2024/03/17 06:30:41;;;;;;;0.80;0.50;;;;;;;3.30;100.00;101706.53;5016204;28;20213;-71
2024/03/17 06:33:10;;;;;;;0.93;0.63;;;;;;;3.35;100.00;101709.66;5010006;28;20194;-71
2024/03/17 06:35:38;;;;;;;5.78;1.08;;;;;;;3.54;100.00;101708.84;5000619;28;20197;-71
2024/03/17 06:38:09;;;;;;;0.98;0.82;;;;;;;3.48;100.00;101716.47;5013226;28;20178;-72
2024/03/17 06:40:38;;;;;;;0.80;0.50;;;;;;;3.42;100.00;101714.34;5009251;28;20253;-71
2024/03/17 06:43:07;;;;;;;3.05;0.80;;;;;;;3.40;100.00;101715.44;5015497;28;20264;-71
2024/03/17 06:45:35;;;;;;;6.30;3.00;;;;;;;3.43;100.00;101717.88;5019999;28;20261;-69
2024/03/17 06:48:08;;;;;;;2.65;2.53;;;;;;;3.56;100.00;101723.81;5004751;28;20607;-72
2024/03/17 06:50:35;;;;;;;1.35;0.77;;;;;;;3.66;100.00;101730.03;5021764;28;20218;-71
2024/03/17 06:53:04;;;;;;;0.80;0.50;;;;;;;3.76;100.00;101733.59;5018325;28;20190;-71
2024/03/17 06:55:33;;;;;;;2.40;1.02;;;;;;;4.12;100.00;101731.22;5002713;28;20567;-69
2024/03/17 06:58:00;;;;;;;0.80;0.60;;;;;;;4.17;98.17;101731.66;5019419;28;20194;-72
2024/03/17 07:00:28;;;;;;;1.63;1.42;;;;;;;4.27;97.59;101743.22;5017439;28;20265;-71
2024/03/17 07:02:57;;;;;;;0.80;0.45;;;;;;;4.10;97.80;101741.25;5007942;28;20705;-70
2024/03/17 07:05:25;;;;;;;0.80;0.60;;;;;;;4.24;97.23;101751.56;5024195;28;20669;-71
2024/03/17 07:07:53;;;;;;;4.95;1.58;;;;;;;4.35;96.47;101754.09;5028913;28;20197;-71
2024/03/17 07:10:19;;;;;;;0.80;0.50;;;;;;;4.13;96.52;101755.19;5013891;28;20214;-71
2024/03/17 07:12:49;;;;;;;1.42;1.30;;;;;;;4.43;96.98;101753.38;4995660;28;20222;-71
2024/03/17 07:15:16;;;;;;;1.05;0.57;;;;;;;4.48;95.46;101764.53;5015690;28;20202;-71
2024/03/17 07:22:04;;;;;;;0.80;0.50;;;;;;;4.80;93.65;101773.09;5012560;28;20213;-70
2024/03/17 07:24:33;;;;;;;1.30;0.90;;;;;;;4.54;92.77;101764.81;5010733;28;20198;-68
2024/03/17 07:27:01;;;;;;;0.85;0.65;;;;;;;4.37;94.04;101762.81;5018564;28;20190;-70
2024/03/17 07:29:30;;;;;;;0.80;0.50;;;;;;;4.59;93.72;101770.59;5027806;28;20238;-70
2024/03/17 07:31:58;;;;;;;0.80;0.50;;;;;;;4.94;93.26;101771.81;5012219;28;20743;-70
2024/03/17 07:34:25;;;;;;;0.82;0.65;;;;;;;5.29;90.63;101772.00;5011327;28;20186;-71
2024/03/17 07:36:53;;;;;;;0.80;0.50;;;;;;;5.24;90.26;101779.63;5027637;28;20248;-71
2024/03/17 07:39:22;;;;;;;0.80;0.50;;;;;;;5.23;91.34;101772.56;5011687;28;20229;-70
2024/03/17 07:41:49;;;;;;;0.80;0.50;;;;;;;5.28;91.15;101775.66;5010142;28;20270;-70
2024/03/17 07:44:17;;;;;;;0.80;0.55;;;;;;;5.30;89.34;101781.75;5018978;28;20221;-71
2024/03/17 07:46:47;;;;;;;0.93;0.65;;;;;;;5.35;89.27;101781.28;5009614;28;20202;-69
2024/03/17 07:49:15;;;;;;;0.90;0.70;;;;;;;5.45;89.47;101785.63;5012020;28;20216;-69
2024/03/17 07:51:44;;;;;;;1.25;1.13;;;;;;;5.63;87.87;101797.28;5015531;28;20198;-69
2024/03/17 07:54:13;;;;;;;0.80;0.60;;;;;;;5.70;86.55;101792.19;5035261;28;20181;-70
2024/03/17 07:56:41;;;;;;;1.27;1.17;;;;;;;5.83;86.44;101791.81;5013595;28;20225;-69
2024/03/17 07:59:12;;;;;;;0.80;0.50;;;;;;;5.93;85.76;101793.50;4996498;28;20679;-71
2024/03/17 08:01:40;;;;;;;3.55;0.82;;;;;;;5.72;85.58;101784.81;5032093;28;20200;-71
2024/03/17 08:04:11;;;;;;;1.00;0.60;;;;;;;5.79;86.16;101787.75;5016000;28;20701;-71
2024/03/17 08:06:40;;;;;;;1.75;0.90;;;;;;;5.72;85.88;101790.16;5029087;28;20193;-71
2024/03/17 08:09:08;;;;;;;0.80;0.60;;;;;;;5.76;84.98;101794.25;5020240;28;20218;-69
2024/03/17 08:11:36;;;;;;;0.80;0.60;;;;;;;5.79;84.38;101787.75;5034117;28;20665;-70
2024/03/17 08:14:05;;;;;;;5.40;0.90;;;;;;;6.28;83.33;101792.72;5014872;28;20217;-70
2024/03/17 08:16:33;;;;;;;1.35;0.80;;;;;;;6.63;80.05;101791.88;5037287;28;20275;-71
2024/03/17 08:19:01;;;;;;;0.80;0.50;;;;;;;6.63;80.00;101794.56;5026661;28;20217;-70
2024/03/17 08:21:30;;;;;;;1.40;0.75;;;;;;;6.61;78.28;101782.25;5014131;28;20239;-71
2024/03/17 08:23:58;;;;;;;2.25;1.23;;;;;;;6.43;79.20;101791.19;5013831;28;20198;-70
2024/03/17 08:26:26;;;;;;;1.00;0.82;;;;;;;6.28;79.82;101787.34;5023160;28;20197;-71
2024/03/17 08:28:54;;;;;;;1.00;0.65;;;;;;;6.27;80.36;101793.69;5015516;28;20726;-70
2024/03/17 08:31:22;;;;;;;1.05;0.60;;;;;;;6.14;80.23;101785.16;5011642;28;20202;-71
2024/03/17 08:33:50;;;;;;;1.65;1.13;;;;;;;6.25;80.84;101784.94;5020566;28;20205;-71
2024/03/17 08:36:21;;;;;;;1.45;0.73;;;;;;;6.60;78.56;101785.94;5013497;28;20232;-72
2024/03/17 08:38:50;;;;;;;1.00;0.65;;;;;;;6.51;75.83;101788.56;5012838;28;20186;-71
2024/03/17 08:41:18;;;;;;;0.80;0.50;;;;;;;6.46;75.97;101785.50;5019662;28;20213;-71
2024/03/17 08:43:46;;;;;;;0.80;0.50;;;;;;;6.45;75.83;101786.47;5013604;28;20198;-71
2024/03/17 08:46:14;;;;;;;2.22;1.10;;;;;;;6.26;74.14;101792.00;5005984;28;20191;-71
2024/03/17 08:48:43;;;;;;;0.80;0.50;;;;;;;6.13;73.26;101783.47;5030275;28;20198;-71
2024/03/17 08:51:11;;;;;;;1.67;0.93;;;;;;;6.06;74.02;101793.13;5033291;28;20271;-71
2024/03/17 08:53:40;;;;;;;6.35;1.30;;;;;;;6.25;75.23;101784.94;5014106;28;20183;-71
2024/03/17 08:56:09;;;;;;;0.90;0.60;;;;;;;6.43;72.55;101801.09;5015496;28;20717;-71
2024/03/17 08:58:37;;;;;;;1.80;1.65;;;;;;;6.47;73.23;101803.31;5008078;28;20186;-70
2024/03/17 09:04:07;;;;;;;1.00;0.60;;;;;;;7.03;69.34;101801.25;5124929;23;20295;-70
2024/03/17 09:06:35;;;;;;;1.20;1.05;;;;;;;6.95;69.77;101797.50;4922513;29;20205;-69
2024/03/17 09:09:03;;;;;;;0.80;0.50;;;;;;;6.94;69.44;101805.72;4918326;29;20216;-70
2024/03/17 09:11:32;;;;;;;0.90;0.70;;;;;;;6.88;70.22;101796.44;4906329;29;20670;-70
2024/03/17 09:14:00;;;;;;;4.68;0.88;;;;;;;6.90;70.10;101798.97;4903022;29;20532;-70
2024/03/17 09:16:30;;;;;;;1.85;0.75;;;;;;;6.95;70.23;101797.50;4901420;29;20685;-71
2024/03/17 09:18:58;;;;;;;1.00;0.60;;;;;;;7.48;70.26;101799.19;4909667;29;20221;-71
2024/03/17 09:21:26;;;;;;;3.45;1.50;;;;;;;7.86;66.33;101808.63;4904254;29;20186;-71
2024/03/17 09:23:53;;;;;;;1.48;0.75;;;;;;;8.17;65.18;101801.69;4909632;29;20233;-71
2024/03/17 09:26:22;;;;;;;1.42;1.25;;;;;;;7.95;64.86;101804.09;4908965;29;20193;-72
2024/03/17 09:28:51;;;;;;;0.80;0.50;;;;;;;7.39;65.66;101806.38;4906533;29;20193;-71
2024/03/17 09:31:19;;;;;;;1.08;0.70;;;;;;;6.92;65.93;101802.38;4907377;29;20646;-71
2024/03/17 09:33:47;;;;;;;1.75;0.60;;;;;;;6.81;67.54;101805.28;4886685;29;20751;-70
2024/03/17 09:36:16;;;;;;;1.10;0.85;;;;;;;7.08;67.56;101802.47;4900723;29;20209;-72
2024/03/17 09:38:45;;;;;;;3.05;0.80;;;;;;;7.47;64.75;101804.72;4900574;29;20201;-70
2024/03/17 09:41:24;;;;;;;0.90;0.50;;;;;;;7.81;64.10;101802.88;4901141;29;20192;-70
2024/03/17 09:43:55;;;;;;;2.00;1.80;;;;;;;7.66;63.70;101805.34;4907155;29;20204;-70
2024/03/17 09:46:25;;;;;;;1.00;0.90;;;;;;;7.86;61.98;101806.78;4906211;29;20667;-71
2024/03/17 09:48:55;;;;;;;3.85;0.88;;;;;;;7.91;62.33;101803.59;4899760;29;20308;-69
2024/03/17 09:51:25;;;;;;;1.20;0.80;;;;;;;8.22;62.45;101810.13;4904723;29;20295;-71
2024/03/17 09:53:53;;;;;;;1.10;0.68;;;;;;;8.48;61.19;101806.47;4909182;29;20221;-70
2024/03/17 09:56:21;;;;;;;1.42;1.00;;;;;;;8.21;61.59;101803.03;4897524;29;20227;-71
2024/03/17 09:58:51;;;;;;;1.08;0.95;;;;;;;8.43;60.69;101795.31;4903446;29;20249;-70
2024/03/17 10:01:20;;;;;;;0.80;0.50;;;;;;;8.15;60.59;101803.69;4908807;29;20197;-70
2024/03/17 10:03:51;;;;;;;0.80;0.63;;;;;;;7.84;61.96;101799.88;4905310;29;20253;-70
2024/03/17 10:06:20;;;;;;;1.17;0.60;;;;;;;7.75;62.86;101795.44;4903957;29;20210;-70
2024/03/17 10:08:49;;;;;;;1.27;0.90;;;;;;;7.73;62.20;101794.78;4903005;29;20201;-70
2024/03/17 10:12:18;;;;;;;0.80;0.50;;;;;;;7.88;61.84;101793.16;4903077;29;20204;-71
2024/03/17 10:14:59;;;;;;;0.90;0.70;;;;;;;7.74;61.77;101793.78;4884045;29;20186;-70
2024/03/17 10:17:36;;;;;;;1.33;1.15;;;;;;;7.71;62.05;101791.38;4900377;29;20193;-71
2024/03/17 10:20:17;;;;;;;0.88;0.57;;;;;;;7.60;62.91;101797.06;4898174;29;20223;-69
2024/03/17 10:23:03;;;;;;;1.92;0.70;;;;;;;7.81;60.80;101806.44;4909461;29;20213;-71
2024/03/17 10:25:32;;;;;;;2.13;0.90;;;;;;;8.32;60.18;101804.59;4900780;29;20202;-69
2024/03/17 10:28:01;;;;;;;1.02;0.90;;;;;;;8.35;59.81;101804.25;4892210;29;20197;-69
2024/03/17 10:30:30;;;;;;;0.80;0.50;;;;;;;8.03;60.12;101796.91;4909525;29;20221;-71
2024/03/17 10:33:00;;;;;;;0.80;0.50;;;;;;;7.80;61.00;101791.25;4901192;29;20572;-68
2024/03/17 10:35:33;;;;;;;1.10;0.70;;;;;;;7.61;61.39;101804.13;4902739;29;20198;-70
2024/03/17 10:38:03;;;;;;;6.25;0.73;;;;;;;7.88;62.49;101790.47;4902087;29;20197;-70
2024/03/17 10:40:32;;;;;;;1.10;0.80;;;;;;;8.06;61.06;101796.56;4900331;29;20671;-70
2024/03/17 10:43:02;;;;;;;0.80;0.50;;;;;;;8.16;60.91;101799.97;4897904;29;20226;-69
2024/03/17 10:45:31;;;;;;;1.20;0.90;;;;;;;8.35;60.22;101798.03;4898185;29;20209;-70
2024/03/17 10:48:03;;;;;;;4.10;0.80;;;;;;;8.74;58.47;101796.38;4899793;29;20208;-71
2024/03/17 10:50:32;;;;;;;1.27;0.60;;;;;;;9.03;56.07;101804.81;4904823;29;20756;-70
2024/03/17 10:53:08;;;;;;;0.93;0.60;;;;;;;8.51;56.87;101800.75;4900356;29;20672;-70
2024/03/17 10:55:43;;;;;;;1.15;0.80;;;;;;;8.67;56.37;101809.69;4899987;29;20216;-71
2024/03/17 10:58:24;;;;;;;0.90;0.65;;;;;;;7.92;57.10;101802.59;4894980;29;20185;-72
2024/03/17 11:00:52;;;;;;;4.20;0.90;;;;;;;8.13;57.30;101802.97;4897289;29;20220;-70
2024/03/17 11:03:22;;;;;;;0.95;0.82;;;;;;;8.69;55.76;101806.84;4883843;29;20226;-70
2024/03/17 11:05:52;;;;;;;1.80;0.75;;;;;;;8.98;54.20;101798.22;4901712;29;20240;-71
2024/03/17 11:08:21;;;;;;;1.50;0.80;;;;;;;9.53;52.39;101792.91;4899705;29;20221;-70
2024/03/17 11:10:54;;;;;;;0.80;0.50;;;;;;;9.71;51.38;101796.22;4893121;29;20724;-69
2024/03/17 11:13:26;;;;;;;2.03;0.80;;;;;;;10.01;51.55;101790.00;4895150;29;20569;-70
2024/03/17 11:15:55;;;;;;;5.38;1.00;;;;;;;9.91;51.13;101802.91;4898707;29;20189;-69
2024/03/17 11:18:44;;;;;;;0.85;0.55;;;;;;;9.25;52.85;101792.44;4898591;29;20220;-69
2024/03/17 11:21:25;;;;;;;1.90;0.80;;;;;;;9.28;53.34;101793.97;4900848;29;20189;-70
2024/03/17 11:23:57;;;;;;;1.35;1.02;;;;;;;8.80;54.30;101790.31;4899188;29;20201;-71
2024/03/17 11:26:29;;;;;;;0.90;0.70;;;;;;;8.58;53.12;101799.06;4905603;29;20254;-71
2024/03/17 11:28:58;;;;;;;0.82;0.52;;;;;;;8.32;52.70;101792.97;4898778;29;20272;-70
2024/03/17 11:31:52;;;;;;;1.00;0.70;;;;;;;8.82;52.36;101790.13;4895675;29;20244;-70
2024/03/17 11:34:39;;;;;;;0.98;0.60;;;;;;;9.00;51.08;101783.56;4900966;29;20197;-70
2024/03/17 11:37:08;;;;;;;0.80;0.50;;;;;;;9.46;49.70;101784.63;4895761;29;20189;-71
2024/03/17 11:39:53;;;;;;;0.98;0.60;;;;;;;9.35;49.18;101781.44;4902891;29;20221;-70
2024/03/17 11:42:20;;;;;;;18.23;0.90;;;;;;;9.98;48.65;101775.97;4902754;29;20600;-71
2024/03/17 11:45:06;;;;;;;2.13;1.08;;;;;;;10.29;47.25;101782.28;4898537;29;20213;-71
2024/03/17 11:47:37;;;;;;;1.17;0.50;;;;;;;10.19;47.63;101791.63;4894610;29;20197;-71
2024/03/17 11:50:12;;;;;;;0.80;0.50;;;;;;;10.25;48.09;101786.34;4899646;29;20226;-71